createdAt,value
2017-10-03T00:00:23.080Z,95.5
2017-10-03T00:05:07.748Z,94.6
2017-10-03T00:10:10.672Z,95
2017-10-03T00:15:18.513Z,95.3
2017-10-03T00:20:08.244Z,95.7
2017-10-03T00:25:02.961Z,95.7
2017-10-03T00:30:15.504Z,95.8
2017-10-03T00:35:07.652Z,95.8
2017-10-03T00:40:10.579Z,95.6
2017-10-03T00:45:05.762Z,95.6
2017-10-03T00:50:03.152Z,95.6
2017-10-03T00:55:02.785Z,95.8
2017-10-03T01:00:02.651Z,95.6
2017-10-03T01:05:05.847Z,95.4
2017-10-03T01:10:05.293Z,95.7
2017-10-03T01:15:02.919Z,95.7
2017-10-03T01:20:07.849Z,95.8
2017-10-03T01:25:03.480Z,95.8
2017-10-03T01:30:26.073Z,95.8
2017-10-03T01:35:05.650Z,95.7
2017-10-03T01:40:08.630Z,95.7
2017-10-03T01:45:02.773Z,95.7
2017-10-03T01:50:02.717Z,95.9
2017-10-03T01:55:05.972Z,95.7
2017-10-03T02:00:05.758Z,96.3
2017-10-03T02:05:05.599Z,96.4
2017-10-03T02:10:03.386Z,96.3
2017-10-03T02:15:15.287Z,96.9
2017-10-03T02:25:05.879Z,96.7
2017-10-03T02:30:03.191Z,96.7
2017-10-03T02:35:10.498Z,96.4
2017-10-03T02:40:10.887Z,96.5
2017-10-03T02:45:02.572Z,96.5
2017-10-03T02:50:08.389Z,96.7
2017-10-03T02:55:05.692Z,96.8
2017-10-03T03:00:03.012Z,96.8
2017-10-03T03:05:02.791Z,96.9
2017-10-03T03:10:03.142Z,96.6
2017-10-03T03:15:08.464Z,96.4
2017-10-03T03:20:20.981Z,96.6
2017-10-03T03:25:03.016Z,96.6
2017-10-03T03:30:28.179Z,96.5
2017-10-03T03:35:07.712Z,96.5
2017-10-03T03:40:13.096Z,96.6
2017-10-03T03:45:20.946Z,96.6
2017-10-03T03:50:08.149Z,96.6
2017-10-03T03:55:07.867Z,96.4
2017-10-03T04:00:20.385Z,96.6
2017-10-03T04:05:08.538Z,96.5
2017-10-03T04:10:05.414Z,96.3
2017-10-03T04:15:28.390Z,95.9
2017-10-03T04:20:02.923Z,95.9
2017-10-03T04:25:02.760Z,96.3
2017-10-03T04:30:03.551Z,96.1
2017-10-03T04:35:05.817Z,96.1
2017-10-03T04:40:05.163Z,96.2
2017-10-03T04:45:07.828Z,96.3
2017-10-03T04:50:10.276Z,95.9
2017-10-03T04:55:03.357Z,95.9
2017-10-03T05:00:05.733Z,96
2017-10-03T05:10:03.437Z,95.9
2017-10-03T05:15:26.334Z,95.7
2017-10-03T05:20:05.947Z,95.8
2017-10-03T05:25:08.177Z,95.9
2017-10-03T05:30:05.479Z,96.1
2017-10-03T05:35:02.693Z,96
2017-10-03T05:40:10.562Z,96.2
2017-10-03T05:45:08.293Z,96
2017-10-03T05:50:20.814Z,95.9
2017-10-03T05:55:18.007Z,92.5
2017-10-03T06:00:02.787Z,95.7
2017-10-03T06:05:38.882Z,95.6
2017-10-03T06:10:10.426Z,95.5
2017-10-03T06:15:05.678Z,95.7
2017-10-03T06:20:02.968Z,95.7
2017-10-03T06:25:02.619Z,95.6
2017-10-03T06:30:16.148Z,95.3
2017-10-03T06:35:08.255Z,95.5
2017-10-03T06:40:08.624Z,95.5
2017-10-03T06:45:08.420Z,95.5
2017-10-03T06:50:03.507Z,95.5
2017-10-03T06:55:23.481Z,95.4
2017-10-03T07:00:05.588Z,95.6
2017-10-03T07:05:05.323Z,95
2017-10-03T07:10:21.105Z,94.8
2017-10-03T07:15:10.998Z,94.8
2017-10-03T07:20:05.933Z,95
2017-10-03T07:25:18.301Z,94.5
2017-10-03T07:30:05.506Z,94.8
2017-10-03T07:35:20.475Z,94.3
2017-10-03T07:40:03.153Z,94.3
2017-10-03T07:45:03.443Z,94.5
2017-10-03T07:50:03.262Z,94.7
2017-10-03T07:55:02.984Z,94.6
2017-10-03T08:00:33.216Z,94.4
2017-10-03T08:05:05.164Z,94.1
2017-10-03T08:10:13.135Z,93.7
2017-10-03T08:15:03.171Z,93.7
2017-10-03T08:20:05.592Z,41.6
2017-10-03T08:25:02.804Z,92.8
2017-10-03T08:30:05.217Z,92.6
2017-10-03T08:35:03.438Z,92.6
2017-10-03T08:40:23.189Z,92.6
2017-10-03T08:45:05.690Z,91.8
2017-10-03T08:50:10.621Z,92.1
2017-10-03T08:55:18.043Z,91.4
2017-10-03T09:00:10.252Z,90.6
2017-10-03T09:05:38.909Z,90.4
2017-10-03T09:10:05.432Z,91.3
2017-10-03T09:15:03.243Z,91
2017-10-03T09:20:05.625Z,90.7
2017-10-03T09:25:05.513Z,90.9
2017-10-03T09:30:07.918Z,90
2017-10-03T09:35:15.331Z,90.3
2017-10-03T09:40:03.087Z,90.3
2017-10-03T09:45:05.889Z,87.5
2017-10-03T09:50:03.282Z,87.4
2017-10-03T09:55:03.129Z,89.5
2017-10-03T10:00:13.222Z,87.3
2017-10-03T10:05:05.437Z,86.3
2017-10-03T10:10:26.110Z,85.6
2017-10-03T10:15:17.720Z,85.6
2017-10-03T10:20:05.972Z,86.7
2017-10-03T10:25:20.949Z,85.2
2017-10-03T10:30:03.148Z,85.2
2017-10-03T10:35:08.072Z,84.1
2017-10-03T10:40:05.944Z,82.2
2017-10-03T10:45:05.277Z,83
2017-10-03T10:50:02.632Z,83
2017-10-03T10:55:03.490Z,84.7
2017-10-03T11:00:05.909Z,85.4
2017-10-03T11:05:08.293Z,87.8
2017-10-03T11:10:06.132Z,92.6
2017-10-03T11:15:08.021Z,95.2
2017-10-03T11:20:05.410Z,95.4
2017-10-03T11:25:02.583Z,95.1
2017-10-03T11:30:26.154Z,95.3
2017-10-03T11:35:05.581Z,94.9
2017-10-03T11:40:05.929Z,94.4
2017-10-03T11:45:05.208Z,94.3
2017-10-03T11:50:03.579Z,94.3
2017-10-03T11:55:08.350Z,93.1
2017-10-03T12:00:03.096Z,93.2
2017-10-03T12:05:02.913Z,92.9
2017-10-03T12:10:03.294Z,90.8
2017-10-03T12:15:10.196Z,88.6
2017-10-03T12:20:03.505Z,88.3
2017-10-03T12:25:16.009Z,80.4
2017-10-03T12:30:05.834Z,78.9
2017-10-03T12:35:05.685Z,74.4
2017-10-03T12:40:05.222Z,74.7
2017-10-03T12:45:03.139Z,74.7
2017-10-03T12:50:05.812Z,73
2017-10-03T12:55:11.009Z,68.3
2017-10-03T13:00:05.157Z,65.4
2017-10-03T13:05:23.220Z,67.2
2017-10-03T13:10:38.177Z,68.5
2017-10-03T13:15:23.671Z,64
2017-10-03T13:20:05.234Z,66.9
2017-10-03T13:25:02.905Z,66.8
2017-10-03T13:30:20.867Z,67.1
2017-10-03T13:35:10.852Z,68.8
2017-10-03T13:40:03.001Z,68.8
2017-10-03T13:45:02.697Z,67.5
2017-10-03T13:50:02.983Z,65.1
2017-10-03T13:55:03.452Z,60.2
2017-10-03T14:00:05.396Z,59.4
2017-10-03T14:05:05.985Z,58.1
2017-10-03T14:10:08.571Z,58.2
2017-10-03T14:15:05.958Z,59.1
2017-10-03T14:20:02.790Z,59.1
2017-10-03T14:25:08.286Z,69.1
2017-10-03T14:30:03.463Z,69.2
2017-10-03T14:35:02.637Z,70.4
2017-10-03T14:40:05.749Z,72.9
2017-10-03T14:45:02.686Z,72.9
2017-10-03T14:50:10.392Z,68.2
2017-10-03T14:55:02.827Z,68.1
2017-10-03T15:00:05.515Z,66.8
2017-10-03T15:05:05.587Z,64.3
2017-10-03T15:10:12.821Z,59.2
2017-10-03T15:15:03.331Z,59.1
2017-10-03T15:20:03.508Z,59.6
2017-10-03T15:25:02.654Z,60.8
2017-10-03T15:30:10.404Z,62.7
2017-10-03T15:35:05.471Z,65.7
2017-10-03T15:40:06.067Z,67.2
2017-10-03T15:45:08.133Z,68.1
2017-10-03T15:50:05.583Z,69.4
2017-10-03T15:55:10.635Z,71.2
2017-10-03T16:00:08.158Z,73.1
2017-10-03T16:05:10.641Z,83.9
2017-10-03T16:10:06.069Z,92.9
2017-10-03T16:15:10.491Z,94.3
2017-10-03T16:20:02.812Z,94.4
2017-10-03T16:25:03.574Z,94.2
2017-10-03T16:30:05.594Z,95.4
2017-10-03T16:35:18.397Z,96.6
2017-10-03T16:40:05.068Z,95.5
2017-10-03T16:45:15.476Z,95.6
2017-10-03T16:50:07.772Z,95.4
2017-10-03T16:55:23.670Z,95.3
2017-10-03T17:00:03.306Z,95.3
2017-10-03T17:05:02.949Z,95.6
2017-10-03T17:10:05.859Z,95.4
2017-10-03T17:15:07.659Z,95.4
2017-10-03T17:20:03.425Z,95.4
2017-10-03T17:25:03.174Z,95.7
2017-10-03T17:30:20.667Z,93.4
2017-10-03T17:35:02.721Z,93.4
2017-10-03T17:40:05.582Z,94.1
2017-10-03T17:45:20.910Z,93.1
2017-10-03T17:50:05.604Z,92.8
2017-10-03T17:55:07.748Z,92.6
2017-10-03T18:00:03.552Z,92.6
2017-10-03T18:05:20.936Z,92.2
2017-10-03T18:10:06.040Z,92.8
2017-10-03T18:15:05.202Z,93
2017-10-03T18:20:07.738Z,93.4
2017-10-03T18:25:05.909Z,94.1
2017-10-03T18:30:20.801Z,93.7
2017-10-03T18:35:02.924Z,93.7
2017-10-03T18:40:08.277Z,93.7
2017-10-03T18:45:03.403Z,93.7
2017-10-03T18:50:05.856Z,93.3
2017-10-03T18:55:05.534Z,92.8
2017-10-03T19:00:03.025Z,92.8
2017-10-03T19:05:12.707Z,92.7
2017-10-03T19:10:30.802Z,92.3
2017-10-03T19:15:08.195Z,92.6
2017-10-03T19:20:05.409Z,92.5
2017-10-03T19:25:03.505Z,92.4
2017-10-03T19:30:10.943Z,92.2
2017-10-03T19:35:10.510Z,92
2017-10-03T19:40:08.253Z,92
2017-10-03T19:45:11.021Z,91.5
2017-10-03T19:50:05.781Z,91.8
2017-10-03T19:55:35.760Z,91.5
2017-10-03T20:00:22.912Z,92.2
2017-10-03T20:05:15.904Z,92.1
2017-10-03T20:10:02.553Z,92.1
2017-10-03T20:15:20.413Z,91.7
2017-10-03T20:20:05.136Z,91.7
2017-10-03T20:25:03.145Z,91.7
2017-10-03T20:30:02.962Z,91.7
2017-10-03T20:35:05.127Z,91.8
2017-10-03T20:40:07.915Z,91.8
2017-10-03T20:45:05.542Z,91.5
2017-10-03T20:50:05.332Z,91.4
2017-10-03T20:55:03.346Z,91.4
2017-10-03T21:00:08.161Z,91.9
2017-10-03T21:05:07.854Z,91.8
2017-10-03T21:10:05.527Z,91.8
2017-10-03T21:15:03.059Z,91.8
2017-10-03T21:25:06.021Z,91.9
2017-10-03T21:30:03.227Z,92
2017-10-03T21:35:05.422Z,91.8
2017-10-03T21:40:03.221Z,91.8
2017-10-03T21:45:08.315Z,91.6
2017-10-03T21:50:13.045Z,91.8
2017-10-03T21:55:08.552Z,91.7
2017-10-03T22:00:05.734Z,91.4
2017-10-03T22:05:05.348Z,91.7
2017-10-03T22:10:05.677Z,91.7
2017-10-03T22:15:10.802Z,91.9
2017-10-03T22:20:02.959Z,91.9
2017-10-03T22:25:06.062Z,91.5
2017-10-03T22:30:05.776Z,91.4
2017-10-03T22:35:02.761Z,91.4
2017-10-03T22:40:03.036Z,91.4
2017-10-03T22:45:03.142Z,91
2017-10-03T22:50:05.382Z,90.6
2017-10-03T22:55:08.439Z,90.6
2017-10-03T23:00:13.285Z,90.5
2017-10-03T23:05:10.245Z,90.5
2017-10-03T23:10:02.856Z,90.5
2017-10-03T23:15:10.612Z,90.5
2017-10-03T23:20:07.848Z,90.6
2017-10-03T23:25:03.234Z,90.6
2017-10-03T23:30:03.082Z,90.8
2017-10-03T23:35:05.189Z,90.5
2017-10-03T23:40:02.936Z,90.5
2017-10-03T23:45:03.083Z,90.5
2017-10-03T23:50:07.846Z,90.1
2017-10-03T23:55:05.920Z,90.1
